sensor_id;sensor_type;location;lat;lon;timestamp;P1;durP1;ratioP1;P2;durP2;ratioP2
26435;SDS011;15351;52.408;16.826;2023-07-13T00:00:08;2.60;;;1.90;;
26435;SDS011;15351;52.408;16.826;2023-07-13T00:03:00;3.70;;;1.70;;
26435;SDS011;15351;52.408;16.826;2023-07-13T00:05:27;2.70;;;1.70;;
26435;SDS011;15351;52.408;16.826;2023-07-13T00:07:56;4.10;;;1.80;;
26435;SDS011;15351;52.408;16.826;2023-07-13T00:10:22;2.80;;;1.80;;
26435;SDS011;15351;52.408;16.826;2023-07-13T00:12:49;3.60;;;1.90;;
26435;SDS011;15351;52.408;16.826;2023-07-13T00:15:18;4.20;;;1.90;;
26435;SDS011;15351;52.408;16.826;2023-07-13T00:17:52;3.40;;;1.70;;
26435;SDS011;15351;52.408;16.826;2023-07-13T00:20:33;3.00;;;1.80;;
26435;SDS011;15351;52.408;16.826;2023-07-13T00:22:59;3.90;;;1.90;;
26435;SDS011;15351;52.408;16.826;2023-07-13T00:25:26;2.40;;;1.80;;
26435;SDS011;15351;52.408;16.826;2023-07-13T00:27:56;3.60;;;1.80;;
26435;SDS011;15351;52.408;16.826;2023-07-13T00:30:23;3.10;;;2.20;;
26435;SDS011;15351;52.408;16.826;2023-07-13T00:32:50;5.00;;;1.90;;
26435;SDS011;15351;52.408;16.826;2023-07-13T00:35:16;3.40;;;1.90;;
26435;SDS011;15351;52.408;16.826;2023-07-13T00:37:43;3.10;;;1.80;;
26435;SDS011;15351;52.408;16.826;2023-07-13T00:40:10;4.90;;;1.90;;
26435;SDS011;15351;52.408;16.826;2023-07-13T00:42:38;3.60;;;2.00;;
26435;SDS011;15351;52.408;16.826;2023-07-13T00:47:40;4.60;;;2.10;;
26435;SDS011;15351;52.408;16.826;2023-07-13T00:50:14;3.60;;;1.80;;
26435;SDS011;15351;52.408;16.826;2023-07-13T00:52:45;2.90;;;1.90;;
26435;SDS011;15351;52.408;16.826;2023-07-13T00:55:14;2.90;;;1.70;;
26435;SDS011;15351;52.408;16.826;2023-07-13T00:57:42;4.50;;;1.90;;
26435;SDS011;15351;52.408;16.826;2023-07-13T01:00:10;2.90;;;1.80;;
26435;SDS011;15351;52.408;16.826;2023-07-13T01:02:41;2.30;;;1.70;;
26435;SDS011;15351;52.408;16.826;2023-07-13T01:05:15;3.50;;;2.00;;
26435;SDS011;15351;52.408;16.826;2023-07-13T01:07:47;2.70;;;1.90;;
26435;SDS011;15351;52.408;16.826;2023-07-13T01:10:22;3.40;;;1.90;;
26435;SDS011;15351;52.408;16.826;2023-07-13T01:12:53;2.20;;;1.90;;
26435;SDS011;15351;52.408;16.826;2023-07-13T01:15:34;3.30;;;1.80;;
26435;SDS011;15351;52.408;16.826;2023-07-13T01:18:10;3.00;;;2.00;;
26435;SDS011;15351;52.408;16.826;2023-07-13T01:20:50;4.00;;;2.00;;
26435;SDS011;15351;52.408;16.826;2023-07-13T01:23:18;5.00;;;1.90;;
26435;SDS011;15351;52.408;16.826;2023-07-13T01:25:48;3.10;;;1.80;;
26435;SDS011;15351;52.408;16.826;2023-07-13T01:28:16;3.80;;;2.00;;
26435;SDS011;15351;52.408;16.826;2023-07-13T01:30:43;3.00;;;1.90;;
26435;SDS011;15351;52.408;16.826;2023-07-13T01:33:12;2.70;;;2.00;;
26435;SDS011;15351;52.408;16.826;2023-07-13T01:35:45;3.40;;;1.90;;
26435;SDS011;15351;52.408;16.826;2023-07-13T01:38:13;3.70;;;1.90;;
26435;SDS011;15351;52.408;16.826;2023-07-13T01:40:43;6.00;;;2.40;;
26435;SDS011;15351;52.408;16.826;2023-07-13T01:43:10;3.90;;;2.10;;
26435;SDS011;15351;52.408;16.826;2023-07-13T01:45:36;2.90;;;2.10;;
26435;SDS011;15351;52.408;16.826;2023-07-13T01:48:04;3.90;;;1.90;;
26435;SDS011;15351;52.408;16.826;2023-07-13T01:50:33;4.20;;;1.90;;
26435;SDS011;15351;52.408;16.826;2023-07-13T01:53:00;3.50;;;1.80;;
26435;SDS011;15351;52.408;16.826;2023-07-13T01:55:28;2.90;;;1.70;;
26435;SDS011;15351;52.408;16.826;2023-07-13T01:57:55;2.90;;;1.90;;
26435;SDS011;15351;52.408;16.826;2023-07-13T02:00:23;2.30;;;1.90;;
26435;SDS011;15351;52.408;16.826;2023-07-13T02:02:51;2.60;;;1.90;;
26435;SDS011;15351;52.408;16.826;2023-07-13T02:05:18;4.10;;;1.90;;
26435;SDS011;15351;52.408;16.826;2023-07-13T02:07:45;2.70;;;1.90;;
26435;SDS011;15351;52.408;16.826;2023-07-13T02:10:14;3.80;;;2.30;;
26435;SDS011;15351;52.408;16.826;2023-07-13T02:12:41;4.10;;;2.20;;
26435;SDS011;15351;52.408;16.826;2023-07-13T02:15:09;4.10;;;2.20;;
26435;SDS011;15351;52.408;16.826;2023-07-13T02:17:36;3.20;;;2.10;;
26435;SDS011;15351;52.408;16.826;2023-07-13T02:20:03;2.40;;;1.70;;
26435;SDS011;15351;52.408;16.826;2023-07-13T02:22:31;4.50;;;1.90;;
26435;SDS011;15351;52.408;16.826;2023-07-13T02:24:58;3.40;;;2.00;;
26435;SDS011;15351;52.408;16.826;2023-07-13T02:27:25;3.30;;;1.90;;
26435;SDS011;15351;52.408;16.826;2023-07-13T02:29:51;2.50;;;2.00;;
26435;SDS011;15351;52.408;16.826;2023-07-13T02:32:20;4.40;;;2.10;;
26435;SDS011;15351;52.408;16.826;2023-07-13T02:34:51;3.80;;;2.20;;
26435;SDS011;15351;52.408;16.826;2023-07-13T02:37:20;2.40;;;1.90;;
26435;SDS011;15351;52.408;16.826;2023-07-13T02:39:48;6.40;;;2.10;;
26435;SDS011;15351;52.408;16.826;2023-07-13T02:42:15;2.90;;;2.00;;
26435;SDS011;15351;52.408;16.826;2023-07-13T02:44:49;4.60;;;2.20;;
26435;SDS011;15351;52.408;16.826;2023-07-13T02:47:17;3.60;;;2.40;;
26435;SDS011;15351;52.408;16.826;2023-07-13T02:49:44;4.00;;;2.40;;
26435;SDS011;15351;52.408;16.826;2023-07-13T02:52:11;3.00;;;2.20;;
26435;SDS011;15351;52.408;16.826;2023-07-13T02:54:38;4.30;;;2.20;;
26435;SDS011;15351;52.408;16.826;2023-07-13T02:57:05;4.60;;;2.20;;
26435;SDS011;15351;52.408;16.826;2023-07-13T02:59:34;4.00;;;2.30;;
26435;SDS011;15351;52.408;16.826;2023-07-13T03:02:02;3.80;;;2.70;;
26435;SDS011;15351;52.408;16.826;2023-07-13T03:04:28;2.90;;;2.40;;
26435;SDS011;15351;52.408;16.826;2023-07-13T03:06:56;4.20;;;2.40;;
26435;SDS011;15351;52.408;16.826;2023-07-13T03:09:24;4.50;;;2.60;;
26435;SDS011;15351;52.408;16.826;2023-07-13T03:11:52;3.80;;;2.80;;
26435;SDS011;15351;52.408;16.826;2023-07-13T03:14:25;4.10;;;2.40;;
26435;SDS011;15351;52.408;16.826;2023-07-13T03:16:53;5.00;;;2.40;;
26435;SDS011;15351;52.408;16.826;2023-07-13T03:19:25;4.20;;;2.50;;
26435;SDS011;15351;52.408;16.826;2023-07-13T03:21:55;4.00;;;2.80;;
26435;SDS011;15351;52.408;16.826;2023-07-13T03:24:24;3.50;;;2.70;;
26435;SDS011;15351;52.408;16.826;2023-07-13T03:26:54;6.40;;;2.50;;
26435;SDS011;15351;52.408;16.826;2023-07-13T03:29:28;4.30;;;2.50;;
26435;SDS011;15351;52.408;16.826;2023-07-13T03:31:55;4.60;;;2.50;;
26435;SDS011;15351;52.408;16.826;2023-07-13T03:34:22;3.70;;;2.80;;
26435;SDS011;15351;52.408;16.826;2023-07-13T03:36:48;4.40;;;2.90;;
26435;SDS011;15351;52.408;16.826;2023-07-13T03:39:15;4.30;;;2.80;;
26435;SDS011;15351;52.408;16.826;2023-07-13T03:41:47;3.80;;;3.00;;
26435;SDS011;15351;52.408;16.826;2023-07-13T03:44:15;6.50;;;2.70;;
26435;SDS011;15351;52.408;16.826;2023-07-13T03:46:43;5.00;;;3.10;;
26435;SDS011;15351;52.408;16.826;2023-07-13T03:49:10;4.40;;;3.20;;
26435;SDS011;15351;52.408;16.826;2023-07-13T03:51:40;4.50;;;3.10;;
26435;SDS011;15351;52.408;16.826;2023-07-13T03:54:06;4.90;;;3.20;;
26435;SDS011;15351;52.408;16.826;2023-07-13T03:56:33;6.10;;;3.00;;
26435;SDS011;15351;52.408;16.826;2023-07-13T03:59:00;4.60;;;2.90;;
26435;SDS011;15351;52.408;16.826;2023-07-13T04:01:30;6.70;;;2.80;;
26435;SDS011;15351;52.408;16.826;2023-07-13T04:03:57;4.10;;;3.00;;
26435;SDS011;15351;52.408;16.826;2023-07-13T04:06:26;8.40;;;3.40;;
26435;SDS011;15351;52.408;16.826;2023-07-13T04:08:56;5.00;;;3.40;;
26435;SDS011;15351;52.408;16.826;2023-07-13T04:11:26;6.30;;;3.30;;
26435;SDS011;15351;52.408;16.826;2023-07-13T04:13:55;6.10;;;3.10;;
26435;SDS011;15351;52.408;16.826;2023-07-13T04:16:22;4.70;;;3.10;;
26435;SDS011;15351;52.408;16.826;2023-07-13T04:18:49;4.20;;;3.10;;
26435;SDS011;15351;52.408;16.826;2023-07-13T04:21:20;5.80;;;3.40;;
26435;SDS011;15351;52.408;16.826;2023-07-13T04:23:49;4.20;;;3.40;;
26435;SDS011;15351;52.408;16.826;2023-07-13T04:26:20;5.00;;;3.20;;
26435;SDS011;15351;52.408;16.826;2023-07-13T04:28:49;4.10;;;3.30;;
26435;SDS011;15351;52.408;16.826;2023-07-13T04:31:24;4.80;;;3.10;;
26435;SDS011;15351;52.408;16.826;2023-07-13T04:33:50;4.90;;;3.00;;
26435;SDS011;15351;52.408;16.826;2023-07-13T04:36:17;5.60;;;3.70;;
26435;SDS011;15351;52.408;16.826;2023-07-13T04:38:45;6.70;;;4.20;;
26435;SDS011;15351;52.408;16.826;2023-07-13T04:41:12;7.10;;;4.20;;
26435;SDS011;15351;52.408;16.826;2023-07-13T04:43:42;6.30;;;3.90;;
26435;SDS011;15351;52.408;16.826;2023-07-13T04:46:10;5.50;;;4.00;;
26435;SDS011;15351;52.408;16.826;2023-07-13T04:48:39;6.00;;;4.00;;
26435;SDS011;15351;52.408;16.826;2023-07-13T04:51:06;5.60;;;4.20;;
26435;SDS011;15351;52.408;16.826;2023-07-13T04:53:33;6.20;;;4.40;;
26435;SDS011;15351;52.408;16.826;2023-07-13T04:56:00;7.00;;;4.60;;
26435;SDS011;15351;52.408;16.826;2023-07-13T04:58:27;7.00;;;4.60;;
26435;SDS011;15351;52.408;16.826;2023-07-13T05:01:05;5.90;;;4.50;;
26435;SDS011;15351;52.408;16.826;2023-07-13T05:03:32;7.70;;;4.20;;
26435;SDS011;15351;52.408;16.826;2023-07-13T05:06:00;5.90;;;4.20;;
26435;SDS011;15351;52.408;16.826;2023-07-13T05:08:30;8.60;;;4.80;;
26435;SDS011;15351;52.408;16.826;2023-07-13T05:10:56;6.40;;;4.90;;
26435;SDS011;15351;52.408;16.826;2023-07-13T05:13:24;6.70;;;4.80;;
26435;SDS011;15351;52.408;16.826;2023-07-13T05:15:58;6.40;;;4.50;;
26435;SDS011;15351;52.408;16.826;2023-07-13T05:18:31;4.90;;;4.40;;
26435;SDS011;15351;52.408;16.826;2023-07-13T05:23:28;7.20;;;4.70;;
26435;SDS011;15351;52.408;16.826;2023-07-13T05:25:54;8.40;;;4.50;;
26435;SDS011;15351;52.408;16.826;2023-07-13T05:28:22;6.60;;;4.70;;
26435;SDS011;15351;52.408;16.826;2023-07-13T05:30:49;6.60;;;4.80;;
26435;SDS011;15351;52.408;16.826;2023-07-13T05:33:21;5.90;;;4.20;;
26435;SDS011;15351;52.408;16.826;2023-07-13T05:35:50;5.60;;;4.20;;
26435;SDS011;15351;52.408;16.826;2023-07-13T05:38:24;7.10;;;5.00;;
26435;SDS011;15351;52.408;16.826;2023-07-13T05:40:50;7.10;;;4.70;;
26435;SDS011;15351;52.408;16.826;2023-07-13T05:43:17;7.00;;;4.50;;
26435;SDS011;15351;52.408;16.826;2023-07-13T05:45:46;7.40;;;4.50;;
26435;SDS011;15351;52.408;16.826;2023-07-13T05:48:13;8.40;;;4.80;;
26435;SDS011;15351;52.408;16.826;2023-07-13T05:50:39;5.80;;;4.60;;
26435;SDS011;15351;52.408;16.826;2023-07-13T05:53:06;6.50;;;4.60;;
26435;SDS011;15351;52.408;16.826;2023-07-13T05:55:32;7.00;;;4.60;;
26435;SDS011;15351;52.408;16.826;2023-07-13T05:57:59;6.60;;;4.90;;
26435;SDS011;15351;52.408;16.826;2023-07-13T06:00:30;8.80;;;4.70;;
26435;SDS011;15351;52.408;16.826;2023-07-13T06:02:56;7.70;;;4.50;;
26435;SDS011;15351;52.408;16.826;2023-07-13T06:05:25;8.10;;;5.10;;
26435;SDS011;15351;52.408;16.826;2023-07-13T06:07:57;8.80;;;5.20;;
26435;SDS011;15351;52.408;16.826;2023-07-13T06:10:24;8.00;;;5.00;;
26435;SDS011;15351;52.408;16.826;2023-07-13T06:12:50;6.90;;;4.90;;
26435;SDS011;15351;52.408;16.826;2023-07-13T06:15:17;6.20;;;5.00;;
26435;SDS011;15351;52.408;16.826;2023-07-13T06:17:45;6.90;;;4.60;;
26435;SDS011;15351;52.408;16.826;2023-07-13T06:20:13;6.40;;;4.40;;
26435;SDS011;15351;52.408;16.826;2023-07-13T06:22:39;7.40;;;4.70;;
26435;SDS011;15351;52.408;16.826;2023-07-13T06:25:06;8.80;;;4.90;;
26435;SDS011;15351;52.408;16.826;2023-07-13T06:27:34;7.50;;;5.20;;
26435;SDS011;15351;52.408;16.826;2023-07-13T06:30:00;9.40;;;5.10;;
26435;SDS011;15351;52.408;16.826;2023-07-13T06:32:27;7.50;;;4.90;;
26435;SDS011;15351;52.408;16.826;2023-07-13T06:34:54;8.40;;;5.20;;
26435;SDS011;15351;52.408;16.826;2023-07-13T06:37:20;8.70;;;5.80;;
26435;SDS011;15351;52.408;16.826;2023-07-13T06:39:46;7.50;;;5.70;;
26435;SDS011;15351;52.408;16.826;2023-07-13T06:42:12;8.00;;;5.60;;
26435;SDS011;15351;52.408;16.826;2023-07-13T06:44:43;8.50;;;5.80;;
26435;SDS011;15351;52.408;16.826;2023-07-13T06:47:10;7.20;;;5.60;;
26435;SDS011;15351;52.408;16.826;2023-07-13T06:49:37;8.40;;;5.30;;
26435;SDS011;15351;52.408;16.826;2023-07-13T06:52:04;7.60;;;5.80;;
26435;SDS011;15351;52.408;16.826;2023-07-13T06:54:33;6.20;;;5.30;;
26435;SDS011;15351;52.408;16.826;2023-07-13T06:57:00;9.50;;;5.80;;
26435;SDS011;15351;52.408;16.826;2023-07-13T07:02:36;9.90;;;5.60;;
26435;SDS011;15351;52.408;16.826;2023-07-13T07:05:04;7.20;;;5.40;;
26435;SDS011;15351;52.408;16.826;2023-07-13T07:07:32;6.10;;;4.80;;
26435;SDS011;15351;52.408;16.826;2023-07-13T07:09:59;6.90;;;4.90;;
26435;SDS011;15351;52.408;16.826;2023-07-13T07:12:25;7.50;;;5.90;;
26435;SDS011;15351;52.408;16.826;2023-07-13T07:14:52;7.60;;;5.60;;
26435;SDS011;15351;52.408;16.826;2023-07-13T07:17:19;9.30;;;5.30;;
26435;SDS011;15351;52.408;16.826;2023-07-13T07:19:45;8.70;;;4.90;;
26435;SDS011;15351;52.408;16.826;2023-07-13T07:22:12;7.70;;;5.00;;
26435;SDS011;15351;52.408;16.826;2023-07-13T07:24:40;7.40;;;5.10;;
26435;SDS011;15351;52.408;16.826;2023-07-13T07:27:08;6.80;;;4.70;;
26435;SDS011;15351;52.408;16.826;2023-07-13T07:29:34;5.30;;;4.20;;
26435;SDS011;15351;52.408;16.826;2023-07-13T07:32:01;7.20;;;4.50;;
26435;SDS011;15351;52.408;16.826;2023-07-13T07:34:29;6.70;;;4.30;;
26435;SDS011;15351;52.408;16.826;2023-07-13T07:36:59;6.00;;;3.80;;
26435;SDS011;15351;52.408;16.826;2023-07-13T07:39:27;6.30;;;3.60;;
26435;SDS011;15351;52.408;16.826;2023-07-13T07:41:54;4.40;;;3.30;;
26435;SDS011;15351;52.408;16.826;2023-07-13T07:44:21;4.80;;;3.10;;
26435;SDS011;15351;52.408;16.826;2023-07-13T07:46:49;8.50;;;3.60;;
26435;SDS011;15351;52.408;16.826;2023-07-13T07:49:17;6.30;;;3.20;;
26435;SDS011;15351;52.408;16.826;2023-07-13T07:51:44;7.40;;;3.20;;
26435;SDS011;15351;52.408;16.826;2023-07-13T07:54:10;6.80;;;3.00;;
26435;SDS011;15351;52.408;16.826;2023-07-13T07:56:37;5.40;;;3.00;;
26435;SDS011;15351;52.408;16.826;2023-07-13T07:59:03;5.00;;;3.00;;
26435;SDS011;15351;52.408;16.826;2023-07-13T08:01:36;5.50;;;3.00;;
26435;SDS011;15351;52.408;16.826;2023-07-13T08:04:03;4.30;;;2.70;;
26435;SDS011;15351;52.408;16.826;2023-07-13T08:06:34;6.40;;;3.00;;
26435;SDS011;15351;52.408;16.826;2023-07-13T08:09:05;5.00;;;2.70;;
26435;SDS011;15351;52.408;16.826;2023-07-13T08:11:32;7.10;;;3.40;;
26435;SDS011;15351;52.408;16.826;2023-07-13T08:13:58;5.60;;;2.90;;
26435;SDS011;15351;52.408;16.826;2023-07-13T08:16:27;5.20;;;3.10;;
26435;SDS011;15351;52.408;16.826;2023-07-13T08:18:58;4.90;;;2.70;;
26435;SDS011;15351;52.408;16.826;2023-07-13T08:21:26;6.50;;;2.70;;
26435;SDS011;15351;52.408;16.826;2023-07-13T08:23:58;4.90;;;3.00;;
26435;SDS011;15351;52.408;16.826;2023-07-13T08:26:32;4.90;;;2.70;;
26435;SDS011;15351;52.408;16.826;2023-07-13T08:28:59;5.90;;;3.10;;
26435;SDS011;15351;52.408;16.826;2023-07-13T08:31:30;7.90;;;3.50;;
26435;SDS011;15351;52.408;16.826;2023-07-13T08:33:57;9.70;;;3.10;;
26435;SDS011;15351;52.408;16.826;2023-07-13T08:36:24;5.60;;;3.10;;
26435;SDS011;15351;52.408;16.826;2023-07-13T08:38:56;5.20;;;3.20;;
26435;SDS011;15351;52.408;16.826;2023-07-13T08:41:22;7.40;;;3.40;;
26435;SDS011;15351;52.408;16.826;2023-07-13T08:43:51;5.30;;;3.10;;
26435;SDS011;15351;52.408;16.826;2023-07-13T08:46:26;4.50;;;3.10;;
26435;SDS011;15351;52.408;16.826;2023-07-13T08:49:05;5.70;;;3.20;;
26435;SDS011;15351;52.408;16.826;2023-07-13T08:51:45;5.20;;;3.40;;
26435;SDS011;15351;52.408;16.826;2023-07-13T08:54:18;7.70;;;3.10;;
26435;SDS011;15351;52.408;16.826;2023-07-13T08:56:53;6.80;;;3.30;;
26435;SDS011;15351;52.408;16.826;2023-07-13T08:59:25;8.70;;;3.20;;
26435;SDS011;15351;52.408;16.826;2023-07-13T09:05:03;6.40;;;3.30;;
26435;SDS011;15351;52.408;16.826;2023-07-13T09:07:48;6.90;;;3.30;;
26435;SDS011;15351;52.408;16.826;2023-07-13T09:10:27;7.20;;;3.30;;
26435;SDS011;15351;52.408;16.826;2023-07-13T09:12:58;7.70;;;3.50;;
26435;SDS011;15351;52.408;16.826;2023-07-13T09:15:38;5.10;;;3.30;;
26435;SDS011;15351;52.408;16.826;2023-07-13T09:18:11;9.20;;;3.40;;
26435;SDS011;15351;52.408;16.826;2023-07-13T09:20:48;6.10;;;3.00;;
26435;SDS011;15351;52.408;16.826;2023-07-13T09:23:21;5.50;;;3.00;;
26435;SDS011;15351;52.408;16.826;2023-07-13T09:25:54;9.40;;;3.20;;
26435;SDS011;15351;52.408;16.826;2023-07-13T09:28:28;5.60;;;3.30;;
26435;SDS011;15351;52.408;16.826;2023-07-13T09:31:06;6.00;;;3.40;;
26435;SDS011;15351;52.408;16.826;2023-07-13T09:33:40;7.80;;;3.30;;
26435;SDS011;15351;52.408;16.826;2023-07-13T09:36:23;6.70;;;3.80;;
26435;SDS011;15351;52.408;16.826;2023-07-13T09:47:27;9.90;;;4.00;;
26435;SDS011;15351;52.408;16.826;2023-07-13T09:50:00;6.50;;;4.00;;
26435;SDS011;15351;52.408;16.826;2023-07-13T09:52:46;8.80;;;3.90;;
26435;SDS011;15351;52.408;16.826;2023-07-13T09:58:16;7.80;;;3.90;;
26435;SDS011;15351;52.408;16.826;2023-07-13T10:00:56;6.30;;;3.80;;
26435;SDS011;15351;52.408;16.826;2023-07-13T10:03:25;6.70;;;3.60;;
26435;SDS011;15351;52.408;16.826;2023-07-13T10:05:54;5.70;;;3.60;;
26435;SDS011;15351;52.408;16.826;2023-07-13T10:08:25;6.20;;;3.40;;
26435;SDS011;15351;52.408;16.826;2023-07-13T10:10:59;7.40;;;3.50;;
26435;SDS011;15351;52.408;16.826;2023-07-13T10:13:27;6.20;;;3.40;;
26435;SDS011;15351;52.408;16.826;2023-07-13T10:15:58;8.20;;;3.60;;
26435;SDS011;15351;52.408;16.826;2023-07-13T10:18:27;5.50;;;3.30;;
26435;SDS011;15351;52.408;16.826;2023-07-13T10:21:00;6.00;;;3.20;;
26435;SDS011;15351;52.408;16.826;2023-07-13T10:23:37;6.40;;;3.30;;
26435;SDS011;15351;52.408;16.826;2023-07-13T10:26:05;6.20;;;3.70;;
26435;SDS011;15351;52.408;16.826;2023-07-13T10:28:40;6.80;;;3.70;;
26435;SDS011;15351;52.408;16.826;2023-07-13T10:31:10;8.30;;;3.60;;
26435;SDS011;15351;52.408;16.826;2023-07-13T10:33:39;4.80;;;3.10;;
26435;SDS011;15351;52.408;16.826;2023-07-13T10:38:57;6.50;;;3.50;;
26435;SDS011;15351;52.408;16.826;2023-07-13T10:41:27;5.40;;;3.60;;
26435;SDS011;15351;52.408;16.826;2023-07-13T10:43:56;6.60;;;3.90;;
26435;SDS011;15351;52.408;16.826;2023-07-13T10:46:26;5.10;;;3.30;;
26435;SDS011;15351;52.408;16.826;2023-07-13T10:48:55;5.70;;;3.60;;
26435;SDS011;15351;52.408;16.826;2023-07-13T10:51:27;6.10;;;3.40;;
26435;SDS011;15351;52.408;16.826;2023-07-13T10:54:12;6.90;;;3.20;;
26435;SDS011;15351;52.408;16.826;2023-07-13T10:56:53;6.50;;;3.40;;
26435;SDS011;15351;52.408;16.826;2023-07-13T10:59:35;7.60;;;3.50;;
26435;SDS011;15351;52.408;16.826;2023-07-13T11:04:47;6.40;;;3.20;;
26435;SDS011;15351;52.408;16.826;2023-07-13T11:07:20;6.70;;;3.60;;
26435;SDS011;15351;52.408;16.826;2023-07-13T11:09:54;7.10;;;3.60;;
26435;SDS011;15351;52.408;16.826;2023-07-13T11:15:13;5.10;;;3.40;;
26435;SDS011;15351;52.408;16.826;2023-07-13T11:17:54;7.40;;;3.80;;
26435;SDS011;15351;52.408;16.826;2023-07-13T11:20:34;7.20;;;3.50;;
26435;SDS011;15351;52.408;16.826;2023-07-13T11:25:39;8.00;;;3.60;;
26435;SDS011;15351;52.408;16.826;2023-07-13T11:28:11;5.80;;;3.20;;
26435;SDS011;15351;52.408;16.826;2023-07-13T11:33:17;5.30;;;3.10;;
26435;SDS011;15351;52.408;16.826;2023-07-13T11:38:45;5.60;;;2.40;;
26435;SDS011;15351;52.408;16.826;2023-07-13T11:41:32;4.40;;;2.30;;
26435;SDS011;15351;52.408;16.826;2023-07-13T11:44:17;3.20;;;2.00;;
26435;SDS011;15351;52.408;16.826;2023-07-13T11:46:46;3.70;;;2.00;;
26435;SDS011;15351;52.408;16.826;2023-07-13T11:49:15;5.40;;;2.20;;
26435;SDS011;15351;52.408;16.826;2023-07-13T11:51:43;4.00;;;2.00;;
26435;SDS011;15351;52.408;16.826;2023-07-13T11:56:48;4.20;;;1.90;;
26435;SDS011;15351;52.408;16.826;2023-07-13T11:59:16;4.20;;;1.90;;
26435;SDS011;15351;52.408;16.826;2023-07-13T12:01:45;3.00;;;1.90;;
26435;SDS011;15351;52.408;16.826;2023-07-13T12:04:27;4.00;;;1.80;;
26435;SDS011;15351;52.408;16.826;2023-07-13T12:06:58;3.60;;;1.70;;
26435;SDS011;15351;52.408;16.826;2023-07-13T12:09:32;5.50;;;1.90;;
26435;SDS011;15351;52.408;16.826;2023-07-13T12:12:00;3.10;;;1.90;;
26435;SDS011;15351;52.408;16.826;2023-07-13T12:14:27;4.10;;;2.00;;
26435;SDS011;15351;52.408;16.826;2023-07-13T12:16:54;5.40;;;2.00;;
26435;SDS011;15351;52.408;16.826;2023-07-13T12:19:23;3.30;;;2.00;;
26435;SDS011;15351;52.408;16.826;2023-07-13T12:21:54;3.40;;;1.90;;
26435;SDS011;15351;52.408;16.826;2023-07-13T12:24:24;4.70;;;2.00;;
26435;SDS011;15351;52.408;16.826;2023-07-13T12:26:58;3.40;;;1.60;;
26435;SDS011;15351;52.408;16.826;2023-07-13T12:29:31;2.70;;;1.60;;
26435;SDS011;15351;52.408;16.826;2023-07-13T12:32:03;3.40;;;1.70;;
26435;SDS011;15351;52.408;16.826;2023-07-13T12:34:49;2.30;;;1.50;;
26435;SDS011;15351;52.408;16.826;2023-07-13T12:37:19;4.40;;;1.60;;
26435;SDS011;15351;52.408;16.826;2023-07-13T12:39:46;2.30;;;1.30;;
26435;SDS011;15351;52.408;16.826;2023-07-13T12:42:19;2.90;;;1.50;;
26435;SDS011;15351;52.408;16.826;2023-07-13T12:44:54;2.70;;;1.50;;
26435;SDS011;15351;52.408;16.826;2023-07-13T12:47:30;3.30;;;1.40;;
26435;SDS011;15351;52.408;16.826;2023-07-13T12:50:12;3.50;;;1.70;;
26435;SDS011;15351;52.408;16.826;2023-07-13T12:52:43;3.60;;;1.60;;
26435;SDS011;15351;52.408;16.826;2023-07-13T12:55:14;2.70;;;1.50;;
26435;SDS011;15351;52.408;16.826;2023-07-13T12:57:54;4.20;;;1.70;;
26435;SDS011;15351;52.408;16.826;2023-07-13T13:00:26;2.90;;;1.60;;
26435;SDS011;15351;52.408;16.826;2023-07-13T13:02:55;4.40;;;1.60;;
26435;SDS011;15351;52.408;16.826;2023-07-13T13:05:27;4.10;;;1.70;;
26435;SDS011;15351;52.408;16.826;2023-07-13T13:07:54;3.10;;;1.40;;
26435;SDS011;15351;52.408;16.826;2023-07-13T13:10:20;2.70;;;1.60;;
26435;SDS011;15351;52.408;16.826;2023-07-13T13:12:48;3.60;;;1.40;;
26435;SDS011;15351;52.408;16.826;2023-07-13T13:15:15;2.90;;;1.40;;
26435;SDS011;15351;52.408;16.826;2023-07-13T13:17:42;2.40;;;1.50;;
26435;SDS011;15351;52.408;16.826;2023-07-13T13:22:42;3.80;;;1.50;;
26435;SDS011;15351;52.408;16.826;2023-07-13T13:25:12;2.20;;;1.40;;
26435;SDS011;15351;52.408;16.826;2023-07-13T13:27:44;3.40;;;1.50;;
26435;SDS011;15351;52.408;16.826;2023-07-13T13:30:21;3.40;;;1.60;;
26435;SDS011;15351;52.408;16.826;2023-07-13T13:32:48;2.00;;;1.30;;
26435;SDS011;15351;52.408;16.826;2023-07-13T13:35:15;3.70;;;1.40;;
26435;SDS011;15351;52.408;16.826;2023-07-13T13:37:45;2.80;;;1.50;;
26435;SDS011;15351;52.408;16.826;2023-07-13T13:40:41;3.00;;;1.50;;
26435;SDS011;15351;52.408;16.826;2023-07-13T13:43:18;2.20;;;1.50;;
26435;SDS011;15351;52.408;16.826;2023-07-13T13:45:49;2.20;;;1.40;;
26435;SDS011;15351;52.408;16.826;2023-07-13T13:48:19;2.70;;;1.60;;
26435;SDS011;15351;52.408;16.826;2023-07-13T13:50:56;2.90;;;1.60;;
26435;SDS011;15351;52.408;16.826;2023-07-13T13:53:32;2.90;;;1.60;;
26435;SDS011;15351;52.408;16.826;2023-07-13T13:56:00;3.20;;;1.70;;
26435;SDS011;15351;52.408;16.826;2023-07-13T13:58:27;2.00;;;1.50;;
26435;SDS011;15351;52.408;16.826;2023-07-13T14:00:55;3.00;;;1.50;;
26435;SDS011;15351;52.408;16.826;2023-07-13T14:03:55;3.90;;;1.50;;
26435;SDS011;15351;52.408;16.826;2023-07-13T14:07:11;3.60;;;1.70;;
26435;SDS011;15351;52.408;16.826;2023-07-13T14:13:14;3.90;;;1.50;;
26435;SDS011;15351;52.408;16.826;2023-07-13T14:16:27;2.90;;;1.50;;
26435;SDS011;15351;52.408;16.826;2023-07-13T14:19:18;2.70;;;1.50;;
26435;SDS011;15351;52.408;16.826;2023-07-13T14:22:07;2.50;;;1.30;;
26435;SDS011;15351;52.408;16.826;2023-07-13T14:25:21;3.10;;;1.50;;
26435;SDS011;15351;52.408;16.826;2023-07-13T14:28:35;2.50;;;1.40;;
26435;SDS011;15351;52.408;16.826;2023-07-13T14:31:27;2.60;;;1.40;;
26435;SDS011;15351;52.408;16.826;2023-07-13T14:34:23;4.60;;;1.60;;
26435;SDS011;15351;52.408;16.826;2023-07-13T14:37:31;3.00;;;1.60;;
26435;SDS011;15351;52.408;16.826;2023-07-13T14:40:29;3.00;;;1.50;;
26435;SDS011;15351;52.408;16.826;2023-07-13T14:43:21;2.70;;;1.40;;
26435;SDS011;15351;52.408;16.826;2023-07-13T14:46:33;3.00;;;1.70;;
26435;SDS011;15351;52.408;16.826;2023-07-13T14:49:36;3.00;;;1.40;;
26435;SDS011;15351;52.408;16.826;2023-07-13T14:52:50;2.90;;;1.60;;
26435;SDS011;15351;52.408;16.826;2023-07-13T14:55:27;2.80;;;1.60;;
26435;SDS011;15351;52.408;16.826;2023-07-13T14:58:28;3.10;;;1.80;;
26435;SDS011;15351;52.408;16.826;2023-07-13T15:01:25;3.60;;;1.60;;
26435;SDS011;15351;52.408;16.826;2023-07-13T15:04:04;3.20;;;1.70;;
26435;SDS011;15351;52.408;16.826;2023-07-13T15:10:23;3.90;;;1.50;;
26435;SDS011;15351;52.408;16.826;2023-07-13T15:13:18;2.40;;;1.50;;
26435;SDS011;15351;52.408;16.826;2023-07-13T15:16:15;3.40;;;1.60;;
26435;SDS011;15351;52.408;16.826;2023-07-13T15:19:08;6.30;;;2.00;;
26435;SDS011;15351;52.408;16.826;2023-07-13T15:22:15;3.20;;;1.60;;
26435;SDS011;15351;52.408;16.826;2023-07-13T15:25:07;2.80;;;1.50;;
26435;SDS011;15351;52.408;16.826;2023-07-13T15:28:29;3.30;;;1.60;;
26435;SDS011;15351;52.408;16.826;2023-07-13T15:34:19;2.40;;;1.50;;
26435;SDS011;15351;52.408;16.826;2023-07-13T15:36:57;2.70;;;1.50;;
26435;SDS011;15351;52.408;16.826;2023-07-13T15:39:31;4.40;;;1.60;;
26435;SDS011;15351;52.408;16.826;2023-07-13T15:42:16;4.50;;;1.80;;
26435;SDS011;15351;52.408;16.826;2023-07-13T15:44:49;3.50;;;1.60;;
26435;SDS011;15351;52.408;16.826;2023-07-13T15:47:22;3.60;;;1.60;;
26435;SDS011;15351;52.408;16.826;2023-07-13T15:49:52;3.00;;;1.60;;
26435;SDS011;15351;52.408;16.826;2023-07-13T15:52:23;3.00;;;1.60;;
26435;SDS011;15351;52.408;16.826;2023-07-13T15:54:55;3.60;;;1.80;;
26435;SDS011;15351;52.408;16.826;2023-07-13T15:57:29;2.70;;;1.50;;